sensor_id;sensor_type;location;lat;lon;timestamp;P1;durP1;ratioP1;P2;durP2;ratioP2
15408;SDS011;7803;48.130;13.788;2023-01-24T00:00:02;12.30;;;11.10;;
15408;SDS011;7803;48.130;13.788;2023-01-24T00:03:05;13.02;;;11.77;;
15408;SDS011;7803;48.130;13.788;2023-01-24T00:06:11;13.60;;;12.30;;
15408;SDS011;7803;48.130;13.788;2023-01-24T00:09:15;12.82;;;11.48;;
15408;SDS011;7803;48.130;13.788;2023-01-24T00:12:17;12.73;;;11.52;;
15408;SDS011;7803;48.130;13.788;2023-01-24T00:15:19;12.88;;;11.68;;
15408;SDS011;7803;48.130;13.788;2023-01-24T00:18:21;12.93;;;11.73;;
15408;SDS011;7803;48.130;13.788;2023-01-24T00:21:23;12.30;;;11.10;;
15408;SDS011;7803;48.130;13.788;2023-01-24T00:24:27;12.13;;;11.02;;
15408;SDS011;7803;48.130;13.788;2023-01-24T00:27:29;12.65;;;11.45;;
15408;SDS011;7803;48.130;13.788;2023-01-24T00:30:32;12.70;;;11.50;;
15408;SDS011;7803;48.130;13.788;2023-01-24T00:33:34;12.40;;;11.20;;
15408;SDS011;7803;48.130;13.788;2023-01-24T00:36:36;12.60;;;11.40;;
15408;SDS011;7803;48.130;13.788;2023-01-24T00:39:39;11.90;;;10.80;;
15408;SDS011;7803;48.130;13.788;2023-01-24T00:42:41;12.27;;;11.00;;
15408;SDS011;7803;48.130;13.788;2023-01-24T00:45:44;12.10;;;11.00;;
15408;SDS011;7803;48.130;13.788;2023-01-24T00:48:47;12.32;;;11.13;;
15408;SDS011;7803;48.130;13.788;2023-01-24T00:51:49;12.25;;;11.05;;
15408;SDS011;7803;48.130;13.788;2023-01-24T00:54:52;11.63;;;10.55;;
15408;SDS011;7803;48.130;13.788;2023-01-24T00:57:54;12.15;;;10.95;;
15408;SDS011;7803;48.130;13.788;2023-01-24T01:00:56;12.93;;;11.70;;
15408;SDS011;7803;48.130;13.788;2023-01-24T01:04:00;12.00;;;10.85;;
15408;SDS011;7803;48.130;13.788;2023-01-24T01:07:02;11.65;;;10.55;;
15408;SDS011;7803;48.130;13.788;2023-01-24T01:10:06;11.77;;;10.68;;
15408;SDS011;7803;48.130;13.788;2023-01-24T01:13:09;11.82;;;10.73;;
15408;SDS011;7803;48.130;13.788;2023-01-24T01:16:14;10.90;;;9.90;;
15408;SDS011;7803;48.130;13.788;2023-01-24T01:19:18;12.20;;;10.98;;
15408;SDS011;7803;48.130;13.788;2023-01-24T01:22:21;11.85;;;10.75;;
15408;SDS011;7803;48.130;13.788;2023-01-24T01:25:24;11.65;;;10.55;;
15408;SDS011;7803;48.130;13.788;2023-01-24T01:28:26;11.50;;;10.40;;
15408;SDS011;7803;48.130;13.788;2023-01-24T01:31:28;11.30;;;10.20;;
15408;SDS011;7803;48.130;13.788;2023-01-24T01:34:30;10.60;;;9.60;;
15408;SDS011;7803;48.130;13.788;2023-01-24T01:37:32;11.13;;;10.02;;
15408;SDS011;7803;48.130;13.788;2023-01-24T01:40:38;10.65;;;9.73;;
15408;SDS011;7803;48.130;13.788;2023-01-24T01:43:40;10.45;;;9.45;;
15408;SDS011;7803;48.130;13.788;2023-01-24T01:47:03;10.70;;;9.70;;
15408;SDS011;7803;48.130;13.788;2023-01-24T01:50:07;10.43;;;9.43;;
15408;SDS011;7803;48.130;13.788;2023-01-24T01:53:19;10.40;;;9.40;;
15408;SDS011;7803;48.130;13.788;2023-01-24T01:56:25;10.50;;;9.50;;
15408;SDS011;7803;48.130;13.788;2023-01-24T01:59:33;10.60;;;9.60;;
15408;SDS011;7803;48.130;13.788;2023-01-24T02:02:40;10.95;;;9.88;;
15408;SDS011;7803;48.130;13.788;2023-01-24T02:05:44;10.65;;;9.65;;
15408;SDS011;7803;48.130;13.788;2023-01-24T02:08:46;10.48;;;9.52;;
15408;SDS011;7803;48.130;13.788;2023-01-24T02:11:51;9.90;;;9.00;;
15408;SDS011;7803;48.130;13.788;2023-01-24T02:14:58;10.57;;;9.57;;
15408;SDS011;7803;48.130;13.788;2023-01-24T02:18:20;10.30;;;9.32;;
15408;SDS011;7803;48.130;13.788;2023-01-24T02:21:22;10.00;;;9.05;;
15408;SDS011;7803;48.130;13.788;2023-01-24T02:24:25;10.07;;;9.07;;
15408;SDS011;7803;48.130;13.788;2023-01-24T02:27:34;9.30;;;8.50;;
15408;SDS011;7803;48.130;13.788;2023-01-24T02:30:36;9.85;;;8.95;;
15408;SDS011;7803;48.130;13.788;2023-01-24T02:33:39;10.35;;;9.35;;
15408;SDS011;7803;48.130;13.788;2023-01-24T02:36:41;9.55;;;8.65;;
15408;SDS011;7803;48.130;13.788;2023-01-24T02:39:45;9.27;;;8.38;;
15408;SDS011;7803;48.130;13.788;2023-01-24T02:42:53;9.88;;;8.95;;
15408;SDS011;7803;48.130;13.788;2023-01-24T02:45:57;10.65;;;8.98;;
15408;SDS011;7803;48.130;13.788;2023-01-24T02:48:59;9.45;;;8.57;;
15408;SDS011;7803;48.130;13.788;2023-01-24T02:52:01;9.77;;;8.80;;
15408;SDS011;7803;48.130;13.788;2023-01-24T02:55:21;9.27;;;8.38;;
15408;SDS011;7803;48.130;13.788;2023-01-24T02:58:26;9.90;;;8.90;;
15408;SDS011;7803;48.130;13.788;2023-01-24T03:01:27;9.52;;;8.63;;
15408;SDS011;7803;48.130;13.788;2023-01-24T03:04:31;9.27;;;8.40;;
15408;SDS011;7803;48.130;13.788;2023-01-24T03:07:33;9.00;;;8.20;;
15408;SDS011;7803;48.130;13.788;2023-01-24T03:10:44;9.63;;;8.63;;
15408;SDS011;7803;48.130;13.788;2023-01-24T03:13:48;8.85;;;8.05;;
15408;SDS011;7803;48.130;13.788;2023-01-24T03:17:07;9.48;;;8.57;;
15408;SDS011;7803;48.130;13.788;2023-01-24T03:20:27;9.25;;;8.35;;
15408;SDS011;7803;48.130;13.788;2023-01-24T03:23:46;9.00;;;8.10;;
15408;SDS011;7803;48.130;13.788;2023-01-24T03:27:06;9.15;;;8.35;;
15408;SDS011;7803;48.130;13.788;2023-01-24T03:30:27;9.25;;;8.40;;
15408;SDS011;7803;48.130;13.788;2023-01-24T03:33:46;9.07;;;8.18;;
15408;SDS011;7803;48.130;13.788;2023-01-24T03:37:05;8.82;;;8.02;;
15408;SDS011;7803;48.130;13.788;2023-01-24T03:40:08;9.00;;;8.13;;
15408;SDS011;7803;48.130;13.788;2023-01-24T03:43:11;8.80;;;8.00;;
15408;SDS011;7803;48.130;13.788;2023-01-24T03:46:17;8.43;;;7.63;;
15408;SDS011;7803;48.130;13.788;2023-01-24T03:49:19;9.38;;;8.48;;
15408;SDS011;7803;48.130;13.788;2023-01-24T03:52:38;8.80;;;8.00;;
15408;SDS011;7803;48.130;13.788;2023-01-24T03:55:40;9.68;;;8.77;;
15408;SDS011;7803;48.130;13.788;2023-01-24T03:58:43;9.85;;;8.85;;
15408;SDS011;7803;48.130;13.788;2023-01-24T04:01:46;9.32;;;8.50;;
15408;SDS011;7803;48.130;13.788;2023-01-24T04:04:48;9.45;;;8.55;;
15408;SDS011;7803;48.130;13.788;2023-01-24T04:08:08;10.00;;;9.00;;
15408;SDS011;7803;48.130;13.788;2023-01-24T04:11:10;9.85;;;8.85;;
15408;SDS011;7803;48.130;13.788;2023-01-24T04:14:12;9.85;;;8.85;;
15408;SDS011;7803;48.130;13.788;2023-01-24T04:17:15;9.57;;;8.68;;
15408;SDS011;7803;48.130;13.788;2023-01-24T04:20:17;9.27;;;8.38;;
15408;SDS011;7803;48.130;13.788;2023-01-24T04:23:19;9.85;;;8.95;;
15408;SDS011;7803;48.130;13.788;2023-01-24T04:26:21;9.80;;;8.88;;
15408;SDS011;7803;48.130;13.788;2023-01-24T04:29:23;9.98;;;8.98;;
15408;SDS011;7803;48.130;13.788;2023-01-24T04:32:27;10.63;;;9.52;;
15408;SDS011;7803;48.130;13.788;2023-01-24T04:35:30;9.85;;;8.93;;
15408;SDS011;7803;48.130;13.788;2023-01-24T04:38:32;10.38;;;9.38;;
15408;SDS011;7803;48.130;13.788;2023-01-24T04:41:34;9.68;;;8.70;;
15408;SDS011;7803;48.130;13.788;2023-01-24T04:44:36;9.65;;;8.75;;
15408;SDS011;7803;48.130;13.788;2023-01-24T04:47:39;9.98;;;8.98;;
15408;SDS011;7803;48.130;13.788;2023-01-24T04:50:41;10.23;;;9.23;;
15408;SDS011;7803;48.130;13.788;2023-01-24T04:53:43;10.45;;;9.45;;
15408;SDS011;7803;48.130;13.788;2023-01-24T04:56:45;10.02;;;9.10;;
15408;SDS011;7803;48.130;13.788;2023-01-24T04:59:47;10.07;;;9.13;;
15408;SDS011;7803;48.130;13.788;2023-01-24T05:02:51;10.30;;;9.30;;
15408;SDS011;7803;48.130;13.788;2023-01-24T05:05:53;10.60;;;9.60;;
15408;SDS011;7803;48.130;13.788;2023-01-24T05:08:56;10.77;;;9.77;;
15408;SDS011;7803;48.130;13.788;2023-01-24T05:11:58;10.55;;;9.55;;
15408;SDS011;7803;48.130;13.788;2023-01-24T05:15:00;10.07;;;9.07;;
15408;SDS011;7803;48.130;13.788;2023-01-24T05:18:03;11.77;;;10.57;;
15408;SDS011;7803;48.130;13.788;2023-01-24T05:21:06;10.15;;;9.25;;
15408;SDS011;7803;48.130;13.788;2023-01-24T05:24:09;10.25;;;9.25;;
15408;SDS011;7803;48.130;13.788;2023-01-24T05:27:11;11.07;;;9.98;;
15408;SDS011;7803;48.130;13.788;2023-01-24T05:30:13;10.20;;;9.25;;
15408;SDS011;7803;48.130;13.788;2023-01-24T05:33:17;10.85;;;9.82;;
15408;SDS011;7803;48.130;13.788;2023-01-24T05:36:20;10.02;;;9.13;;
15408;SDS011;7803;48.130;13.788;2023-01-24T05:39:23;10.23;;;9.25;;
15408;SDS011;7803;48.130;13.788;2023-01-24T05:42:25;10.70;;;9.70;;
15408;SDS011;7803;48.130;13.788;2023-01-24T05:45:27;10.60;;;9.60;;
15408;SDS011;7803;48.130;13.788;2023-01-24T05:48:31;10.68;;;9.65;;
15408;SDS011;7803;48.130;13.788;2023-01-24T05:51:33;10.15;;;9.18;;
15408;SDS011;7803;48.130;13.788;2023-01-24T05:54:35;10.30;;;9.32;;
15408;SDS011;7803;48.130;13.788;2023-01-24T05:57:37;10.38;;;9.38;;
15408;SDS011;7803;48.130;13.788;2023-01-24T06:00:46;10.10;;;9.13;;
15408;SDS011;7803;48.130;13.788;2023-01-24T06:03:55;11.75;;;9.95;;
15408;SDS011;7803;48.130;13.788;2023-01-24T06:06:57;10.80;;;9.80;;
15408;SDS011;7803;48.130;13.788;2023-01-24T06:10:00;11.57;;;10.48;;
15408;SDS011;7803;48.130;13.788;2023-01-24T06:13:02;11.13;;;9.95;;
15408;SDS011;7803;48.130;13.788;2023-01-24T06:16:05;10.35;;;9.35;;
15408;SDS011;7803;48.130;13.788;2023-01-24T06:19:10;11.00;;;9.90;;
15408;SDS011;7803;48.130;13.788;2023-01-24T06:22:16;10.77;;;9.77;;
15408;SDS011;7803;48.130;13.788;2023-01-24T06:25:23;10.25;;;9.30;;
15408;SDS011;7803;48.130;13.788;2023-01-24T06:28:26;10.63;;;9.60;;
15408;SDS011;7803;48.130;13.788;2023-01-24T06:31:31;10.30;;;9.30;;
15408;SDS011;7803;48.130;13.788;2023-01-24T06:34:58;9.95;;;8.95;;
15408;SDS011;7803;48.130;13.788;2023-01-24T06:38:08;9.85;;;8.93;;
15408;SDS011;7803;48.130;13.788;2023-01-24T06:41:19;9.80;;;8.85;;
15408;SDS011;7803;48.130;13.788;2023-01-24T06:44:22;10.35;;;9.35;;
15408;SDS011;7803;48.130;13.788;2023-01-24T06:47:25;10.32;;;9.32;;
15408;SDS011;7803;48.130;13.788;2023-01-24T06:50:29;9.57;;;8.68;;
15408;SDS011;7803;48.130;13.788;2023-01-24T06:53:31;9.77;;;8.88;;
15408;SDS011;7803;48.130;13.788;2023-01-24T06:56:34;9.40;;;8.50;;
15408;SDS011;7803;48.130;13.788;2023-01-24T06:59:36;9.90;;;8.90;;
15408;SDS011;7803;48.130;13.788;2023-01-24T07:02:38;9.68;;;8.77;;
15408;SDS011;7803;48.130;13.788;2023-01-24T07:05:41;9.35;;;8.45;;
15408;SDS011;7803;48.130;13.788;2023-01-24T07:08:43;9.45;;;8.55;;
15408;SDS011;7803;48.130;13.788;2023-01-24T07:11:45;9.23;;;8.32;;
15408;SDS011;7803;48.130;13.788;2023-01-24T07:14:49;9.60;;;8.70;;
15408;SDS011;7803;48.130;13.788;2023-01-24T07:17:51;9.77;;;8.30;;
15408;SDS011;7803;48.130;13.788;2023-01-24T07:20:55;9.38;;;8.48;;
15408;SDS011;7803;48.130;13.788;2023-01-24T07:23:58;8.70;;;7.90;;
15408;SDS011;7803;48.130;13.788;2023-01-24T07:27:01;9.48;;;8.40;;
15408;SDS011;7803;48.130;13.788;2023-01-24T07:30:03;9.55;;;8.55;;
15408;SDS011;7803;48.130;13.788;2023-01-24T07:33:06;9.30;;;8.40;;
15408;SDS011;7803;48.130;13.788;2023-01-24T07:36:13;8.70;;;7.90;;
15408;SDS011;7803;48.130;13.788;2023-01-24T07:39:16;9.20;;;8.30;;
15408;SDS011;7803;48.130;13.788;2023-01-24T07:42:18;8.80;;;7.90;;
15408;SDS011;7803;48.130;13.788;2023-01-24T07:45:20;8.90;;;8.00;;
15408;SDS011;7803;48.130;13.788;2023-01-24T07:48:22;8.88;;;7.97;;
15408;SDS011;7803;48.130;13.788;2023-01-24T07:51:26;8.88;;;8.07;;
15408;SDS011;7803;48.130;13.788;2023-01-24T07:54:28;8.40;;;7.53;;
15408;SDS011;7803;48.130;13.788;2023-01-24T07:57:30;8.77;;;7.97;;
15408;SDS011;7803;48.130;13.788;2023-01-24T08:00:32;8.25;;;7.47;;
15408;SDS011;7803;48.130;13.788;2023-01-24T08:03:34;8.57;;;7.78;;
15408;SDS011;7803;48.130;13.788;2023-01-24T08:06:37;8.60;;;7.80;;
15408;SDS011;7803;48.130;13.788;2023-01-24T08:10:00;8.60;;;7.72;;
15408;SDS011;7803;48.130;13.788;2023-01-24T08:13:02;8.52;;;7.72;;
15408;SDS011;7803;48.130;13.788;2023-01-24T08:16:04;8.38;;;7.57;;
15408;SDS011;7803;48.130;13.788;2023-01-24T08:19:07;8.30;;;7.45;;
15408;SDS011;7803;48.130;13.788;2023-01-24T08:22:10;8.00;;;7.20;;
15408;SDS011;7803;48.130;13.788;2023-01-24T08:25:12;8.68;;;7.78;;
15408;SDS011;7803;48.130;13.788;2023-01-24T08:28:14;7.90;;;7.10;;
15408;SDS011;7803;48.130;13.788;2023-01-24T08:31:16;7.57;;;6.85;;
15408;SDS011;7803;48.130;13.788;2023-01-24T08:34:18;7.65;;;6.85;;
15408;SDS011;7803;48.130;13.788;2023-01-24T08:37:22;8.27;;;7.03;;
15408;SDS011;7803;48.130;13.788;2023-01-24T08:40:24;7.90;;;7.13;;
15408;SDS011;7803;48.130;13.788;2023-01-24T08:43:27;8.48;;;7.63;;
15408;SDS011;7803;48.130;13.788;2023-01-24T08:46:29;8.27;;;7.30;;
15408;SDS011;7803;48.130;13.788;2023-01-24T08:49:31;7.78;;;6.97;;
15408;SDS011;7803;48.130;13.788;2023-01-24T08:52:34;7.68;;;6.65;;
15408;SDS011;7803;48.130;13.788;2023-01-24T08:55:36;6.80;;;6.20;;
15408;SDS011;7803;48.130;13.788;2023-01-24T08:58:38;7.03;;;6.38;;
15408;SDS011;7803;48.130;13.788;2023-01-24T09:01:40;7.50;;;6.70;;
15408;SDS011;7803;48.130;13.788;2023-01-24T09:04:44;6.95;;;6.35;;
15408;SDS011;7803;48.130;13.788;2023-01-24T09:07:47;7.47;;;6.78;;
15408;SDS011;7803;48.130;13.788;2023-01-24T09:10:49;8.10;;;7.30;;
15408;SDS011;7803;48.130;13.788;2023-01-24T09:13:51;7.20;;;6.50;;
15408;SDS011;7803;48.130;13.788;2023-01-24T09:16:53;7.18;;;6.38;;
15408;SDS011;7803;48.130;13.788;2023-01-24T09:19:55;7.22;;;6.53;;
15408;SDS011;7803;48.130;13.788;2023-01-24T09:22:59;7.13;;;6.43;;
15408;SDS011;7803;48.130;13.788;2023-01-24T09:26:01;7.35;;;6.43;;
15408;SDS011;7803;48.130;13.788;2023-01-24T09:29:03;7.35;;;6.55;;
15408;SDS011;7803;48.130;13.788;2023-01-24T09:32:05;6.80;;;6.20;;
15408;SDS011;7803;48.130;13.788;2023-01-24T09:35:07;6.57;;;5.97;;
15408;SDS011;7803;48.130;13.788;2023-01-24T09:38:11;6.80;;;6.13;;
15408;SDS011;7803;48.130;13.788;2023-01-24T09:41:16;6.80;;;6.15;;
15408;SDS011;7803;48.130;13.788;2023-01-24T09:44:27;7.03;;;6.35;;
15408;SDS011;7803;48.130;13.788;2023-01-24T09:47:40;7.18;;;6.47;;
15408;SDS011;7803;48.130;13.788;2023-01-24T09:50:48;6.60;;;6.00;;
15408;SDS011;7803;48.130;13.788;2023-01-24T09:53:54;6.47;;;5.85;;
15408;SDS011;7803;48.130;13.788;2023-01-24T09:56:58;6.88;;;6.18;;
15408;SDS011;7803;48.130;13.788;2023-01-24T10:00:02;6.45;;;5.85;;
15408;SDS011;7803;48.130;13.788;2023-01-24T10:03:17;6.85;;;6.25;;
15408;SDS011;7803;48.130;13.788;2023-01-24T10:06:22;6.90;;;6.00;;
15408;SDS011;7803;48.130;13.788;2023-01-24T10:09:32;6.70;;;5.90;;
15408;SDS011;7803;48.130;13.788;2023-01-24T10:12:47;6.28;;;5.72;;
15408;SDS011;7803;48.130;13.788;2023-01-24T10:16:00;6.65;;;6.05;;
15408;SDS011;7803;48.130;13.788;2023-01-24T10:19:16;6.43;;;5.82;;
15408;SDS011;7803;48.130;13.788;2023-01-24T10:22:33;6.68;;;5.97;;
15408;SDS011;7803;48.130;13.788;2023-01-24T10:25:50;6.38;;;5.78;;
15408;SDS011;7803;48.130;13.788;2023-01-24T10:28:56;6.25;;;5.65;;
15408;SDS011;7803;48.130;13.788;2023-01-24T10:32:09;6.53;;;5.93;;
15408;SDS011;7803;48.130;13.788;2023-01-24T10:35:16;5.95;;;5.40;;
15408;SDS011;7803;48.130;13.788;2023-01-24T10:38:22;6.35;;;5.75;;
15408;SDS011;7803;48.130;13.788;2023-01-24T10:41:26;6.15;;;5.55;;
15408;SDS011;7803;48.130;13.788;2023-01-24T10:44:34;6.40;;;5.80;;
15408;SDS011;7803;48.130;13.788;2023-01-24T10:47:39;6.15;;;5.55;;
15408;SDS011;7803;48.130;13.788;2023-01-24T10:50:44;6.15;;;5.22;;
15408;SDS011;7803;48.130;13.788;2023-01-24T10:53:47;5.82;;;5.25;;
15408;SDS011;7803;48.130;13.788;2023-01-24T10:56:51;6.38;;;5.78;;
15408;SDS011;7803;48.130;13.788;2023-01-24T10:59:53;6.32;;;5.72;;
15408;SDS011;7803;48.130;13.788;2023-01-24T11:02:56;8.20;;;5.93;;
15408;SDS011;7803;48.130;13.788;2023-01-24T11:06:00;6.38;;;5.38;;
15408;SDS011;7803;48.130;13.788;2023-01-24T11:09:04;6.32;;;5.72;;
15408;SDS011;7803;48.130;13.788;2023-01-24T11:12:12;6.13;;;5.53;;
15408;SDS011;7803;48.130;13.788;2023-01-24T11:15:16;7.65;;;5.95;;
15408;SDS011;7803;48.130;13.788;2023-01-24T11:18:22;6.00;;;5.40;;
15408;SDS011;7803;48.130;13.788;2023-01-24T11:21:28;7.05;;;6.00;;
15408;SDS011;7803;48.130;13.788;2023-01-24T11:24:31;5.88;;;5.28;;
15408;SDS011;7803;48.130;13.788;2023-01-24T11:27:46;6.95;;;5.82;;
15408;SDS011;7803;48.130;13.788;2023-01-24T11:30:49;11.55;;;5.88;;
15408;SDS011;7803;48.130;13.788;2023-01-24T11:33:55;6.90;;;5.90;;
15408;SDS011;7803;48.130;13.788;2023-01-24T11:37:15;8.82;;;5.70;;
15408;SDS011;7803;48.130;13.788;2023-01-24T11:40:37;6.95;;;5.63;;
15408;SDS011;7803;48.130;13.788;2023-01-24T11:43:57;7.15;;;5.38;;
15408;SDS011;7803;48.130;13.788;2023-01-24T11:47:33;6.05;;;5.00;;
15408;SDS011;7803;48.130;13.788;2023-01-24T11:50:42;7.70;;;6.00;;
15408;SDS011;7803;48.130;13.788;2023-01-24T11:53:56;6.25;;;5.13;;
15408;SDS011;7803;48.130;13.788;2023-01-24T11:57:14;5.68;;;5.13;;
15408;SDS011;7803;48.130;13.788;2023-01-24T12:00:30;6.10;;;5.50;;
15408;SDS011;7803;48.130;13.788;2023-01-24T12:03:49;5.68;;;4.95;;
15408;SDS011;7803;48.130;13.788;2023-01-24T12:07:04;6.55;;;5.50;;
15408;SDS011;7803;48.130;13.788;2023-01-24T12:10:14;5.88;;;5.03;;
15408;SDS011;7803;48.130;13.788;2023-01-24T12:13:27;6.25;;;5.25;;
15408;SDS011;7803;48.130;13.788;2023-01-24T12:16:41;7.13;;;4.95;;
15408;SDS011;7803;48.130;13.788;2023-01-24T12:19:56;6.13;;;5.50;;
15408;SDS011;7803;48.130;13.788;2023-01-24T12:23:15;6.25;;;5.28;;
15408;SDS011;7803;48.130;13.788;2023-01-24T12:26:22;5.43;;;4.90;;
15408;SDS011;7803;48.130;13.788;2023-01-24T12:29:27;5.90;;;5.30;;
15408;SDS011;7803;48.130;13.788;2023-01-24T12:32:36;5.82;;;5.22;;
15408;SDS011;7803;48.130;13.788;2023-01-24T12:35:44;6.25;;;5.65;;
15408;SDS011;7803;48.130;13.788;2023-01-24T12:38:49;6.00;;;5.40;;
15408;SDS011;7803;48.130;13.788;2023-01-24T12:42:01;6.05;;;4.93;;
15408;SDS011;7803;48.130;13.788;2023-01-24T12:45:11;5.97;;;5.25;;
15408;SDS011;7803;48.130;13.788;2023-01-24T12:48:19;5.97;;;5.18;;
15408;SDS011;7803;48.130;13.788;2023-01-24T12:51:29;6.03;;;5.07;;
15408;SDS011;7803;48.130;13.788;2023-01-24T12:54:38;5.70;;;5.20;;
15408;SDS011;7803;48.130;13.788;2023-01-24T12:57:47;5.10;;;4.60;;
15408;SDS011;7803;48.130;13.788;2023-01-24T13:00:56;5.43;;;4.93;;
15408;SDS011;7803;48.130;13.788;2023-01-24T13:04:12;5.38;;;4.88;;
15408;SDS011;7803;48.130;13.788;2023-01-24T13:07:24;5.88;;;5.28;;
15408;SDS011;7803;48.130;13.788;2023-01-24T13:10:38;5.47;;;4.97;;
15408;SDS011;7803;48.130;13.788;2023-01-24T13:13:53;5.53;;;4.85;;
15408;SDS011;7803;48.130;13.788;2023-01-24T13:17:10;6.10;;;5.35;;
15408;SDS011;7803;48.130;13.788;2023-01-24T13:27:31;5.25;;;4.75;;
15408;SDS011;7803;48.130;13.788;2023-01-24T13:30:43;5.70;;;5.10;;
15408;SDS011;7803;48.130;13.788;2023-01-24T13:33:51;5.90;;;5.30;;
15408;SDS011;7803;48.130;13.788;2023-01-24T13:36:57;5.25;;;4.75;;
15408;SDS011;7803;48.130;13.788;2023-01-24T13:40:03;5.72;;;4.88;;
15408;SDS011;7803;48.130;13.788;2023-01-24T13:50:10;5.60;;;5.10;;
15408;SDS011;7803;48.130;13.788;2023-01-24T13:53:16;5.68;;;5.18;;
15408;SDS011;7803;48.130;13.788;2023-01-24T14:00:21;5.65;;;5.15;;
15408;SDS011;7803;48.130;13.788;2023-01-24T14:03:26;5.43;;;4.93;;
15408;SDS011;7803;48.130;13.788;2023-01-24T14:06:38;5.55;;;5.05;;
15408;SDS011;7803;48.130;13.788;2023-01-24T14:09:43;6.55;;;5.93;;
15408;SDS011;7803;48.130;13.788;2023-01-24T14:12:51;6.18;;;5.57;;
15408;SDS011;7803;48.130;13.788;2023-01-24T14:15:55;6.28;;;5.45;;
15408;SDS011;7803;48.130;13.788;2023-01-24T14:18:58;5.88;;;5.28;;
15408;SDS011;7803;48.130;13.788;2023-01-24T14:22:18;6.10;;;5.50;;
15408;SDS011;7803;48.130;13.788;2023-01-24T14:25:27;6.15;;;5.20;;
15408;SDS011;7803;48.130;13.788;2023-01-24T14:28:43;6.18;;;5.55;;
15408;SDS011;7803;48.130;13.788;2023-01-24T14:31:50;6.10;;;5.38;;
15408;SDS011;7803;48.130;13.788;2023-01-24T14:34:58;6.68;;;5.47;;
15408;SDS011;7803;48.130;13.788;2023-01-24T14:38:13;6.57;;;5.93;;
15408;SDS011;7803;48.130;13.788;2023-01-24T14:41:20;6.53;;;5.65;;
15408;SDS011;7803;48.130;13.788;2023-01-24T14:44:23;7.75;;;5.28;;
15408;SDS011;7803;48.130;13.788;2023-01-24T14:47:27;6.47;;;5.30;;
15408;SDS011;7803;48.130;13.788;2023-01-24T14:50:30;5.90;;;5.40;;
15408;SDS011;7803;48.130;13.788;2023-01-24T14:53:34;6.25;;;5.47;;
15408;SDS011;7803;48.130;13.788;2023-01-24T14:56:39;6.80;;;5.57;;
15408;SDS011;7803;48.130;13.788;2023-01-24T14:59:41;7.72;;;5.63;;
15408;SDS011;7803;48.130;13.788;2023-01-24T15:02:50;6.03;;;5.45;;
15408;SDS011;7803;48.130;13.788;2023-01-24T15:05:58;6.20;;;5.60;;
15408;SDS011;7803;48.130;13.788;2023-01-24T15:09:01;6.47;;;5.72;;
15408;SDS011;7803;48.130;13.788;2023-01-24T15:12:12;7.43;;;5.90;;
15408;SDS011;7803;48.130;13.788;2023-01-24T15:15:20;6.45;;;5.28;;
15408;SDS011;7803;48.130;13.788;2023-01-24T15:18:39;7.93;;;5.43;;
15408;SDS011;7803;48.130;13.788;2023-01-24T15:21:44;5.80;;;5.00;;
15408;SDS011;7803;48.130;13.788;2023-01-24T15:24:51;5.97;;;5.38;;
15408;SDS011;7803;48.130;13.788;2023-01-24T15:27:56;6.05;;;5.45;;
15408;SDS011;7803;48.130;13.788;2023-01-24T15:30:59;6.00;;;5.25;;
15408;SDS011;7803;48.130;13.788;2023-01-24T15:34:13;6.30;;;5.53;;
15408;SDS011;7803;48.130;13.788;2023-01-24T15:37:19;6.50;;;5.40;;
15408;SDS011;7803;48.130;13.788;2023-01-24T15:40:21;6.35;;;4.90;;
15408;SDS011;7803;48.130;13.788;2023-01-24T15:43:29;6.03;;;5.43;;
15408;SDS011;7803;48.130;13.788;2023-01-24T15:46:53;5.55;;;5.05;;
15408;SDS011;7803;48.130;13.788;2023-01-24T15:50:14;5.90;;;5.13;;
15408;SDS011;7803;48.130;13.788;2023-01-24T15:53:36;6.28;;;5.07;;
15408;SDS011;7803;48.130;13.788;2023-01-24T15:56:40;6.03;;;5.40;;
15408;SDS011;7803;48.130;13.788;2023-01-24T15:59:45;6.30;;;5.43;;
15408;SDS011;7803;48.130;13.788;2023-01-24T16:02:49;6.82;;;5.50;;
15408;SDS011;7803;48.130;13.788;2023-01-24T16:05:51;5.68;;;4.80;;
15408;SDS011;7803;48.130;13.788;2023-01-24T16:08:53;6.25;;;5.13;;
15408;SDS011;7803;48.130;13.788;2023-01-24T16:11:56;6.30;;;5.50;;
15408;SDS011;7803;48.130;13.788;2023-01-24T16:15:01;6.15;;;5.03;;
15408;SDS011;7803;48.130;13.788;2023-01-24T16:18:05;7.00;;;5.00;;
15408;SDS011;7803;48.130;13.788;2023-01-24T16:21:08;6.22;;;4.95;;
15408;SDS011;7803;48.130;13.788;2023-01-24T16:24:11;6.13;;;5.13;;
15408;SDS011;7803;48.130;13.788;2023-01-24T16:27:13;5.95;;;5.05;;
15408;SDS011;7803;48.130;13.788;2023-01-24T16:30:18;5.80;;;5.13;;
15408;SDS011;7803;48.130;13.788;2023-01-24T16:33:22;6.40;;;5.25;;
15408;SDS011;7803;48.130;13.788;2023-01-24T16:36:24;6.35;;;5.07;;
15408;SDS011;7803;48.130;13.788;2023-01-24T16:39:26;5.22;;;4.72;;
15408;SDS011;7803;48.130;13.788;2023-01-24T16:42:29;5.88;;;4.85;;
15408;SDS011;7803;48.130;13.788;2023-01-24T16:45:32;5.35;;;4.85;;
15408;SDS011;7803;48.130;13.788;2023-01-24T16:48:35;6.05;;;5.10;;
15408;SDS011;7803;48.130;13.788;2023-01-24T16:51:37;5.72;;;5.13;;
15408;SDS011;7803;48.130;13.788;2023-01-24T16:54:39;7.72;;;5.40;;
15408;SDS011;7803;48.130;13.788;2023-01-24T16:57:41;6.15;;;5.32;;
15408;SDS011;7803;48.130;13.788;2023-01-24T17:00:45;7.30;;;5.00;;
15408;SDS011;7803;48.130;13.788;2023-01-24T17:03:49;5.75;;;5.13;;
15408;SDS011;7803;48.130;13.788;2023-01-24T17:06:52;5.40;;;4.90;;
15408;SDS011;7803;48.130;13.788;2023-01-24T17:09:54;6.43;;;5.07;;
15408;SDS011;7803;48.130;13.788;2023-01-24T17:12:56;5.72;;;5.13;;
15408;SDS011;7803;48.130;13.788;2023-01-24T17:16:03;5.68;;;5.10;;
15408;SDS011;7803;48.130;13.788;2023-01-24T17:19:07;5.30;;;4.80;;
15408;SDS011;7803;48.130;13.788;2023-01-24T17:22:09;5.40;;;4.90;;
15408;SDS011;7803;48.130;13.788;2023-01-24T17:25:12;6.40;;;5.18;;
15408;SDS011;7803;48.130;13.788;2023-01-24T17:28:14;5.32;;;4.82;;
15408;SDS011;7803;48.130;13.788;2023-01-24T17:31:18;5.68;;;5.07;;
15408;SDS011;7803;48.130;13.788;2023-01-24T17:34:23;5.53;;;5.03;;
15408;SDS011;7803;48.130;13.788;2023-01-24T17:37:26;6.32;;;5.72;;
15408;SDS011;7803;48.130;13.788;2023-01-24T17:40:28;5.18;;;4.68;;
15408;SDS011;7803;48.130;13.788;2023-01-24T17:43:32;5.35;;;4.85;;
15408;SDS011;7803;48.130;13.788;2023-01-24T17:46:38;5.47;;;4.97;;
15408;SDS011;7803;48.130;13.788;2023-01-24T17:49:41;6.68;;;4.90;;
15408;SDS011;7803;48.130;13.788;2023-01-24T17:52:43;6.32;;;5.25;;
15408;SDS011;7803;48.130;13.788;2023-01-24T17:55:46;5.68;;;4.93;;
15408;SDS011;7803;48.130;13.788;2023-01-24T17:58:48;6.78;;;5.15;;
15408;SDS011;7803;48.130;13.788;2023-01-24T18:01:52;6.18;;;5.10;;
15408;SDS011;7803;48.130;13.788;2023-01-24T18:04:55;5.95;;;5.35;;
15408;SDS011;7803;48.130;13.788;2023-01-24T18:07:58;5.68;;;5.07;;
15408;SDS011;7803;48.130;13.788;2023-01-24T18:11:05;6.22;;;5.30;;
15408;SDS011;7803;48.130;13.788;2023-01-24T18:14:09;7.90;;;5.40;;
15408;SDS011;7803;48.130;13.788;2023-01-24T18:17:14;7.60;;;5.20;;
15408;SDS011;7803;48.130;13.788;2023-01-24T18:20:16;6.72;;;5.70;;
15408;SDS011;7803;48.130;13.788;2023-01-24T18:23:20;6.03;;;5.30;;
15408;SDS011;7803;48.130;13.788;2023-01-24T18:26:23;9.32;;;5.25;;
15408;SDS011;7803;48.130;13.788;2023-01-24T18:29:27;8.13;;;5.07;;
15408;SDS011;7803;48.130;13.788;2023-01-24T18:32:35;6.35;;;5.53;;
15408;SDS011;7803;48.130;13.788;2023-01-24T18:35:39;6.30;;;5.45;;
15408;SDS011;7803;48.130;13.788;2023-01-24T18:38:42;6.03;;;5.32;;
15408;SDS011;7803;48.130;13.788;2023-01-24T18:41:46;5.80;;;5.20;;
15408;SDS011;7803;48.130;13.788;2023-01-24T18:44:49;5.18;;;4.68;;
15408;SDS011;7803;48.130;13.788;2023-01-24T18:47:54;7.65;;;5.45;;
15408;SDS011;7803;48.130;13.788;2023-01-24T18:50:57;5.95;;;4.90;;